San Francisco, California
Traffic Map
Current Weather Conditions
San Francisco, California
Broken Clouds
Broken Clouds
13°
Feels Like: 13°
Wind Chill: 13° Ceiling: 4400
Heat Index: 13° Visibility: 10mi
Dew Point: 12° Wind: 7mph
Humidity: 93% Direction: 170° (S)
Pressure: 29.86in Gusts: 0mph
Raw Report DataKSFO 051156Z 17006KT 10SM FEW015 BKN044 13/12 A2986 RMK AO2 SLP112 T01330122 10150 20133 55004
Traffic Incident Summary
Active as of:
Severity:
Category:
InformationThere was an issue retrieving the traffic information for this location. Please try a different location or try again shortly.
Advertisements
Track Severe Weather on mobile